createdAt,value
2019-01-28T00:01:11.948Z,98624.95
2019-01-28T00:03:43.300Z,98625.55
2019-01-28T00:06:13.085Z,98622.30
2019-01-28T00:08:42.671Z,98622.05
2019-01-28T00:11:13.962Z,98629.64
2019-01-28T00:13:44.730Z,98631.91
2019-01-28T00:16:14.144Z,98636.59
2019-01-28T00:18:45.123Z,98628.78
2019-01-28T00:21:14.781Z,98638.98
2019-01-28T00:23:45.332Z,98640.09
2019-01-28T00:26:16.537Z,98642.14
2019-01-28T00:28:45.927Z,98646.45
2019-01-28T00:31:15.320Z,98642.86
2019-01-28T00:33:46.438Z,98644.19
2019-01-28T00:36:17.861Z,98642.02
2019-01-28T00:38:47.935Z,98653.66
2019-01-28T00:41:17.540Z,98651.48
2019-01-28T00:43:48.256Z,98652.94
2019-01-28T00:46:17.728Z,98648.48
2019-01-28T00:48:47.434Z,98652.59
2019-01-28T00:51:18.377Z,98656.06
2019-01-28T00:53:47.961Z,98654.51
2019-01-28T00:56:17.433Z,98652.21
2019-01-28T00:58:47.116Z,98658.00
2019-01-28T01:01:16.863Z,98658.80
2019-01-28T01:03:49.431Z,98656.77
2019-01-28T01:06:19.102Z,98664.35
2019-01-28T01:08:48.506Z,98666.02
2019-01-28T01:11:17.944Z,98664.79
2019-01-28T01:13:50.076Z,98666.26
2019-01-28T01:16:20.706Z,98667.33
2019-01-28T01:18:50.420Z,98671.34
2019-01-28T01:21:19.879Z,98675.59
2019-01-28T01:23:49.655Z,98669.68
2019-01-28T01:26:19.498Z,98672.14
2019-01-28T01:28:49.021Z,98676.48
2019-01-28T01:31:18.525Z,98676.37
2019-01-28T01:33:48.066Z,98675.47
2019-01-28T01:36:18.785Z,98672.30
2019-01-28T01:38:48.188Z,98679.97
2019-01-28T01:41:19.779Z,98674.03
2019-01-28T01:43:49.253Z,98687.55
2019-01-28T01:46:18.743Z,98684.86
2019-01-28T01:48:49.217Z,98692.67
2019-01-28T01:51:19.828Z,98687.73
2019-01-28T01:53:49.252Z,98688.01
2019-01-28T01:56:20.658Z,98690.77
2019-01-28T01:58:51.610Z,98682.91
2019-01-28T02:01:21.790Z,98688.80
2019-01-28T02:03:51.786Z,98688.69
2019-01-28T02:06:21.925Z,98685.11
2019-01-28T02:08:51.757Z,98682.85
2019-01-28T02:11:23.318Z,98690.53
2019-01-28T02:13:52.747Z,98692.58
2019-01-28T02:16:23.701Z,98682.97
2019-01-28T02:18:53.188Z,98692.91
2019-01-28T02:21:22.585Z,98695.17
2019-01-28T02:23:52.243Z,98691.72
2019-01-28T02:26:21.981Z,98697.08
2019-01-28T02:28:53.171Z,98694.48
2019-01-28T02:31:23.600Z,98701.33
2019-01-28T02:33:55.130Z,98697.91
2019-01-28T02:36:24.520Z,98695.97
2019-01-28T02:38:53.941Z,98699.38
2019-01-28T02:41:23.514Z,98697.23
2019-01-28T02:43:52.929Z,98704.22
2019-01-28T02:46:24.393Z,98703.27
2019-01-28T02:48:54.025Z,98701.36
2019-01-28T02:51:25.244Z,98691.77
2019-01-28T02:53:56.289Z,98704.00
2019-01-28T02:56:26.023Z,98704.88
2019-01-28T02:58:55.439Z,98700.75
2019-01-28T03:01:26.290Z,98704.45
2019-01-28T03:03:57.134Z,98704.95
2019-01-28T03:06:26.528Z,98705.83
2019-01-28T03:08:56.035Z,98703.16
2019-01-28T03:11:25.952Z,98703.39
2019-01-28T03:13:56.861Z,98698.57
2019-01-28T03:16:28.027Z,98704.33
2019-01-28T03:18:57.702Z,98700.03
2019-01-28T03:21:27.109Z,98696.80
2019-01-28T03:23:56.756Z,98703.09
2019-01-28T03:26:26.374Z,98696.77
2019-01-28T03:28:55.783Z,98705.93
2019-01-28T03:31:27.041Z,98706.42
2019-01-28T03:33:57.661Z,98712.16
2019-01-28T03:36:27.325Z,98706.77
2019-01-28T03:38:59.726Z,98705.93
2019-01-28T03:41:29.344Z,98707.38
2019-01-28T03:43:58.862Z,98707.44
2019-01-28T03:46:28.311Z,98700.75
2019-01-28T03:48:59.565Z,98706.48
2019-01-28T03:51:29.323Z,98700.48
2019-01-28T03:53:59.131Z,98701.34
2019-01-28T03:56:30.688Z,98697.39
2019-01-28T03:59:01.523Z,98701.69
2019-01-28T04:01:30.925Z,98704.94
2019-01-28T04:04:03.985Z,98703.23
2019-01-28T04:06:33.536Z,98700.85
2019-01-28T04:09:03.527Z,98704.58
2019-01-28T04:11:33.278Z,98694.84
2019-01-28T04:14:02.667Z,98692.57
2019-01-28T04:16:32.069Z,98696.33
2019-01-28T04:19:01.627Z,98691.77
2019-01-28T04:21:31.032Z,98689.83
2019-01-28T04:24:00.466Z,98688.01
2019-01-28T04:26:31.081Z,98677.08
2019-01-28T04:29:01.583Z,98683.09
2019-01-28T04:31:32.468Z,98683.19
2019-01-28T04:34:02.128Z,98680.79
2019-01-28T04:36:32.622Z,98682.23
2019-01-28T04:39:02.027Z,98689.11
2019-01-28T04:41:34.384Z,98684.27
2019-01-28T04:44:03.780Z,98693.66
2019-01-28T04:46:34.288Z,98687.63
2019-01-28T04:49:05.185Z,98690.64
2019-01-28T04:51:34.750Z,98685.24
2019-01-28T04:54:04.813Z,98685.36
2019-01-28T04:56:35.589Z,98687.88
2019-01-28T04:59:06.826Z,98688.73
2019-01-28T05:01:36.256Z,98692.81
2019-01-28T05:04:07.594Z,98697.14
2019-01-28T05:06:37.044Z,98696.93
2019-01-28T05:09:09.436Z,98689.80
2019-01-28T05:11:40.371Z,98694.87
2019-01-28T05:14:09.840Z,98693.28
2019-01-28T05:16:39.259Z,98694.13
2019-01-28T05:19:10.181Z,98693.66
2019-01-28T05:21:40.622Z,98691.63
2019-01-28T05:24:11.052Z,98694.15
2019-01-28T05:26:40.571Z,98689.92
2019-01-28T05:29:10.001Z,98694.27
2019-01-28T05:31:39.465Z,98693.08
2019-01-28T05:34:10.192Z,98689.92
2019-01-28T05:36:39.676Z,98689.09
2019-01-28T05:39:10.379Z,98688.22
2019-01-28T05:41:40.045Z,98686.48
2019-01-28T05:44:11.385Z,98694.71
2019-01-28T05:46:40.939Z,98698.67
2019-01-28T05:49:10.579Z,98695.30
2019-01-28T05:51:40.840Z,98690.16
2019-01-28T05:54:11.768Z,98692.33
2019-01-28T05:56:43.984Z,98694.47
2019-01-28T05:59:13.642Z,98691.92
2019-01-28T06:01:45.874Z,98698.55
2019-01-28T06:04:15.482Z,98692.06
2019-01-28T06:06:46.715Z,98700.95
2019-01-28T06:09:16.129Z,98700.24
2019-01-28T06:11:45.922Z,98699.65
2019-01-28T06:14:16.495Z,98696.27
2019-01-28T06:16:45.961Z,98693.25
2019-01-28T06:19:15.500Z,98704.80
2019-01-28T06:21:44.904Z,98699.86
2019-01-28T06:24:16.854Z,98702.75
2019-01-28T06:26:46.452Z,98705.27
2019-01-28T06:29:16.009Z,98707.80
2019-01-28T06:31:47.024Z,98708.97
2019-01-28T06:34:19.491Z,98710.80
2019-01-28T06:36:50.123Z,98706.71
2019-01-28T06:39:19.579Z,98709.21
2019-01-28T06:41:52.412Z,98708.88
2019-01-28T06:44:22.277Z,98708.22
2019-01-28T06:46:53.994Z,98710.88
2019-01-28T06:49:25.667Z,98722.45
2019-01-28T06:51:57.016Z,98716.55
2019-01-28T06:54:28.261Z,98721.23
2019-01-28T06:56:57.871Z,98721.20
2019-01-28T06:59:27.337Z,98722.14
2019-01-28T07:01:57.850Z,98731.55
2019-01-28T07:04:28.842Z,98730.81
2019-01-28T07:06:58.310Z,98733.55
2019-01-28T07:09:29.168Z,98736.42
2019-01-28T07:11:58.658Z,98735.31
2019-01-28T07:14:28.063Z,98738.63
2019-01-28T07:16:58.881Z,98736.98
2019-01-28T07:19:29.992Z,98746.09
2019-01-28T07:21:59.672Z,98745.53
2019-01-28T07:24:29.129Z,98747.34
2019-01-28T07:26:59.944Z,98746.41
2019-01-28T07:29:29.415Z,98749.67
2019-01-28T07:32:00.121Z,98754.69
2019-01-28T07:34:29.814Z,98757.16
2019-01-28T07:36:59.249Z,98755.86
2019-01-28T07:39:29.668Z,98763.61
2019-01-28T07:42:02.226Z,98763.56
2019-01-28T07:44:31.692Z,98776.58
2019-01-28T07:47:01.101Z,98770.11
2019-01-28T07:49:30.606Z,98775.98
2019-01-28T07:52:00.039Z,98774.25
2019-01-28T07:54:29.652Z,98776.98
2019-01-28T07:57:00.205Z,98779.63
2019-01-28T07:59:29.644Z,98783.23
2019-01-28T08:01:59.055Z,98784.44
2019-01-28T08:04:28.840Z,98789.76
2019-01-28T08:06:59.792Z,98788.44
2019-01-28T08:09:29.208Z,98798.08
2019-01-28T08:11:58.885Z,98800.27
2019-01-28T08:14:28.508Z,98800.31
2019-01-28T08:16:59.413Z,98801.51
2019-01-28T08:19:29.045Z,98806.59
2019-01-28T08:21:58.560Z,98805.16
2019-01-28T08:24:27.955Z,98800.62
2019-01-28T08:26:57.774Z,98805.82
2019-01-28T08:29:27.278Z,98803.03
2019-01-28T08:31:56.716Z,98804.83
2019-01-28T08:34:26.459Z,98805.91
2019-01-28T08:36:57.378Z,98814.38
2019-01-28T08:39:26.853Z,98810.73
2019-01-28T08:41:56.444Z,98811.62
2019-01-28T08:44:27.688Z,98819.20
2019-01-28T08:46:58.950Z,98816.20
2019-01-28T08:49:28.674Z,98819.73
2019-01-28T08:51:59.102Z,98810.80
2019-01-28T08:54:28.514Z,98817.20
2019-01-28T08:56:59.263Z,98822.46
2019-01-28T08:59:28.756Z,98827.19
2019-01-28T09:01:59.488Z,98827.05
2019-01-28T09:04:29.111Z,98831.09
2019-01-28T09:06:58.718Z,98833.47
2019-01-28T09:09:28.376Z,98834.39
2019-01-28T09:12:00.087Z,98839.17
2019-01-28T09:14:29.594Z,98835.59
2019-01-28T09:16:59.398Z,98837.68
2019-01-28T09:19:29.057Z,98833.22
2019-01-28T09:21:58.701Z,98845.88
2019-01-28T09:24:28.169Z,98842.47
2019-01-28T09:26:59.187Z,98842.67
2019-01-28T09:29:28.760Z,98845.17
2019-01-28T09:31:58.292Z,98847.11
2019-01-28T09:34:29.762Z,98854.28
2019-01-28T09:36:59.164Z,98855.75
2019-01-28T09:39:28.605Z,98851.13
2019-01-28T09:41:58.688Z,98848.53
2019-01-28T09:44:28.281Z,98856.09
2019-01-28T09:46:59.576Z,98852.59
2019-01-28T09:49:29.172Z,98854.91
2019-01-28T09:51:58.614Z,98857.53
2019-01-28T09:54:29.151Z,98859.00
2019-01-28T09:56:58.824Z,98864.78
2019-01-28T09:59:29.415Z,98864.97
2019-01-28T10:02:00.095Z,98867.62
2019-01-28T10:04:30.107Z,98870.27
2019-01-28T10:07:01.407Z,98871.23
2019-01-28T10:09:30.884Z,98881.34
2019-01-28T10:12:02.311Z,98881.70
2019-01-28T10:14:32.179Z,98882.44
2019-01-28T10:17:01.621Z,98887.23
2019-01-28T10:19:31.258Z,98887.06
2019-01-28T10:22:00.910Z,98890.53
2019-01-28T10:24:30.403Z,98893.16
2019-01-28T10:27:00.290Z,98892.78
2019-01-28T10:29:29.715Z,98898.55
2019-01-28T10:31:59.112Z,98892.34
2019-01-28T10:34:28.542Z,98898.57
2019-01-28T10:36:58.315Z,98902.05
2019-01-28T10:39:28.833Z,98905.78
2019-01-28T10:42:00.665Z,98900.84
2019-01-28T10:44:30.153Z,98903.70
2019-01-28T10:46:59.702Z,98902.03
2019-01-28T10:49:29.449Z,98903.23
2019-01-28T10:51:59.262Z,98910.83
2019-01-28T10:54:30.473Z,98912.73
2019-01-28T10:57:00.043Z,98896.50
2019-01-28T10:59:29.520Z,98897.81
2019-01-28T11:01:58.981Z,98905.41
2019-01-28T11:04:28.656Z,98911.63
2019-01-28T11:06:58.161Z,98913.09
2019-01-28T11:09:27.592Z,98910.70
2019-01-28T11:11:57.202Z,98909.99
2019-01-28T11:14:27.117Z,98908.69
2019-01-28T11:16:57.048Z,98908.69
2019-01-28T11:19:28.581Z,98911.17
2019-01-28T11:21:58.207Z,98912.59
2019-01-28T11:24:27.641Z,98916.69
2019-01-28T11:26:57.443Z,98915.14
2019-01-28T11:29:26.857Z,98919.00
2019-01-28T11:31:56.279Z,98919.75
2019-01-28T11:34:27.196Z,98921.23
2019-01-28T11:36:56.689Z,98916.90
2019-01-28T11:39:26.201Z,98915.35
2019-01-28T11:41:58.267Z,98912.13
2019-01-28T11:44:27.768Z,98918.61
2019-01-28T11:46:57.261Z,98918.30
2019-01-28T11:49:28.690Z,98918.73
2019-01-28T11:51:58.189Z,98928.13
2019-01-28T11:54:27.648Z,98930.89
2019-01-28T11:56:57.479Z,98940.87
2019-01-28T11:59:29.236Z,98940.06
2019-01-28T12:01:58.665Z,98940.08
2019-01-28T12:04:29.419Z,98941.27
2019-01-28T12:06:59.039Z,98948.33
2019-01-28T12:09:28.440Z,98944.74
2019-01-28T12:11:58.010Z,98943.69
2019-01-28T12:14:29.332Z,98942.23
2019-01-28T12:16:58.745Z,98948.86
2019-01-28T12:19:29.646Z,98944.41
2019-01-28T12:21:59.046Z,98951.49
2019-01-28T12:24:28.540Z,98950.57
2019-01-28T12:26:58.428Z,98957.92
2019-01-28T12:29:29.725Z,98955.30
2019-01-28T12:32:00.480Z,98960.82
2019-01-28T12:34:31.894Z,98962.16
2019-01-28T12:37:03.413Z,98961.70
2019-01-28T12:39:32.895Z,98962.09
2019-01-28T12:42:02.420Z,98964.98
2019-01-28T12:44:32.872Z,98961.53
2019-01-28T12:47:02.274Z,98964.75
2019-01-28T12:49:31.712Z,98971.47
2019-01-28T12:52:03.150Z,98974.98
2019-01-28T12:54:32.611Z,98979.92
2019-01-28T12:57:02.104Z,98979.91
2019-01-28T12:59:31.546Z,98978.47
2019-01-28T13:02:02.442Z,98984.63
2019-01-28T13:04:32.016Z,98989.56
2019-01-28T13:07:01.465Z,98989.95
2019-01-28T13:09:31.970Z,98997.19
2019-01-28T13:12:01.496Z,98998.74
2019-01-28T13:14:30.929Z,99000.78
2019-01-28T13:17:02.167Z,99001.88
2019-01-28T13:19:33.756Z,99003.20
2019-01-28T13:22:04.740Z,99003.20
2019-01-28T13:24:35.661Z,99004.74
2019-01-28T13:27:08.862Z,99014.35
2019-01-28T13:29:39.451Z,99011.48
2019-01-28T13:32:08.957Z,99008.70
2019-01-28T13:34:38.700Z,99012.45
2019-01-28T13:37:09.607Z,99018.20
2019-01-28T13:39:39.023Z,99032.54
2019-01-28T13:42:08.642Z,99034.98
2019-01-28T13:44:41.020Z,99031.02
2019-01-28T13:47:10.672Z,99041.03
2019-01-28T13:49:41.938Z,99038.38
2019-01-28T13:52:11.489Z,99044.98
2019-01-28T13:54:40.876Z,99048.58
2019-01-28T13:57:10.714Z,99051.94
2019-01-28T13:59:40.113Z,99062.42
2019-01-28T14:02:09.614Z,99061.83
2019-01-28T14:04:39.239Z,99066.98
2019-01-28T14:07:10.077Z,99067.94
2019-01-28T14:09:39.728Z,99070.84
2019-01-28T14:12:10.816Z,99077.22
2019-01-28T14:14:40.291Z,99068.85
2019-01-28T14:17:11.119Z,99085.25
2019-01-28T14:19:46.233Z,99084.66
2019-01-28T14:22:11.689Z,99087.10
2019-01-28T14:24:41.078Z,99092.88
2019-01-28T14:27:11.030Z,99100.09
2019-01-28T14:29:41.900Z,99102.53
2019-01-28T14:32:14.138Z,99107.42
2019-01-28T14:34:44.907Z,99101.50
2019-01-28T14:37:16.297Z,99115.19
2019-01-28T14:39:46.750Z,99111.45
2019-01-28T14:42:16.399Z,99115.22
2019-01-28T14:44:47.251Z,99119.81
2019-01-28T14:47:16.674Z,99120.75
2019-01-28T14:49:54.359Z,99127.38
2019-01-28T14:52:18.769Z,99131.00
2019-01-28T14:54:48.301Z,99134.91
2019-01-28T14:57:17.847Z,99144.17
2019-01-28T14:59:47.270Z,99144.61
2019-01-28T15:02:16.757Z,99143.25
2019-01-28T15:04:47.255Z,99153.69
2019-01-28T15:07:18.186Z,99152.34
2019-01-28T15:09:47.599Z,99158.71
2019-01-28T15:12:18.978Z,99163.23
2019-01-28T15:14:49.486Z,99165.88
2019-01-28T15:17:19.236Z,99160.73
2019-01-28T15:19:50.762Z,99169.53
2019-01-28T15:22:20.564Z,99164.16
2019-01-28T15:24:53.208Z,99173.74
2019-01-28T15:27:24.835Z,99170.36
2019-01-28T15:29:55.719Z,99174.76
2019-01-28T15:32:25.157Z,99177.20
2019-01-28T15:34:54.700Z,99181.56
2019-01-28T15:37:24.104Z,99184.21
2019-01-28T15:39:56.169Z,99188.25
2019-01-28T15:42:25.795Z,99193.91
2019-01-28T15:44:56.619Z,99202.60
2019-01-28T15:47:27.213Z,99203.86
2019-01-28T15:49:56.998Z,99209.85
2019-01-28T15:52:26.399Z,99212.86
2019-01-28T15:54:56.223Z,99216.48
2019-01-28T15:57:25.814Z,99222.70
2019-01-28T15:59:55.893Z,99225.19
2019-01-28T16:02:26.400Z,99228.91
2019-01-28T16:04:55.991Z,99236.69
2019-01-28T16:07:27.207Z,99239.72
2019-01-28T16:09:58.089Z,99246.80
2019-01-28T16:12:29.150Z,99250.44
2019-01-28T16:14:58.705Z,99250.66
2019-01-28T16:17:28.513Z,99253.48
2019-01-28T16:19:58.199Z,99257.22
2019-01-28T16:22:27.689Z,99262.46
2019-01-28T16:24:58.275Z,99261.49
2019-01-28T16:27:27.893Z,99267.75
2019-01-28T16:29:59.098Z,99266.48
2019-01-28T16:32:28.503Z,99274.54
2019-01-28T16:35:00.235Z,99270.30
2019-01-28T16:37:30.715Z,99267.01
2019-01-28T16:40:01.221Z,99283.16
2019-01-28T16:42:30.664Z,99289.59
2019-01-28T16:45:00.259Z,99294.25
2019-01-28T16:47:30.199Z,99302.91
2019-01-28T16:49:59.668Z,99306.13
2019-01-28T16:52:29.175Z,99309.91
2019-01-28T16:55:01.571Z,99310.23
2019-01-28T16:57:31.146Z,99308.77
2019-01-28T17:00:02.666Z,99319.49
2019-01-28T17:02:33.183Z,99317.81
2019-01-28T17:05:02.914Z,99322.85
2019-01-28T17:07:32.305Z,99322.49
2019-01-28T17:10:01.827Z,99328.97
2019-01-28T17:12:32.364Z,99329.75
2019-01-28T17:15:02.902Z,99325.10
2019-01-28T17:17:32.374Z,99330.18
2019-01-28T17:20:03.175Z,99336.63
2019-01-28T17:22:32.762Z,99343.52
2019-01-28T17:25:02.281Z,99350.44
2019-01-28T17:27:32.078Z,99363.75
2019-01-28T17:30:02.970Z,99370.64
2019-01-28T17:32:32.396Z,99374.78
2019-01-28T17:35:02.056Z,99382.44
2019-01-28T17:37:32.917Z,99391.45
2019-01-28T17:40:03.876Z,99391.84
2019-01-28T17:42:35.518Z,99408.91
2019-01-28T17:45:06.960Z,99411.47
2019-01-28T17:47:36.424Z,99422.89
2019-01-28T17:50:07.297Z,99420.78
2019-01-28T17:52:36.905Z,99426.20
2019-01-28T17:55:09.180Z,99434.88
2019-01-28T17:57:40.253Z,99436.87
2019-01-28T18:00:13.872Z,99428.91
2019-01-28T18:02:44.475Z,99445.38
2019-01-28T18:05:14.195Z,99443.39
2019-01-28T18:07:44.761Z,99454.19
2019-01-28T18:10:15.037Z,99457.38
2019-01-28T18:12:44.727Z,99464.03
2019-01-28T18:15:16.637Z,99466.18
2019-01-28T18:17:46.149Z,99477.09
2019-01-28T18:20:17.857Z,99476.52
2019-01-28T18:22:47.831Z,99483.59
2019-01-28T18:25:21.069Z,99485.34
2019-01-28T18:27:50.903Z,99487.06
2019-01-28T18:30:39.189Z,99492.01
2019-01-28T18:33:24.897Z,99494.92
2019-01-28T18:35:54.365Z,99498.83
2019-01-28T18:38:25.636Z,99504.83
2019-01-28T18:40:55.183Z,99502.56
2019-01-28T18:43:25.076Z,99502.33
2019-01-28T18:45:54.614Z,99509.74
2019-01-28T18:48:25.465Z,99510.66
2019-01-28T18:50:59.722Z,99517.05
2019-01-28T18:53:30.723Z,99525.91
2019-01-28T18:56:02.987Z,99522.27
2019-01-28T18:58:32.595Z,99529.86
2019-01-28T19:01:03.538Z,99534.45
2019-01-28T19:03:33.273Z,99545.05
2019-01-28T19:06:19.520Z,99552.52
2019-01-28T19:09:23.824Z,99556.39
2019-01-28T19:12:11.745Z,99569.80
2019-01-28T19:14:58.979Z,99581.19
2019-01-28T19:17:52.032Z,99585.08
2019-01-28T19:20:37.406Z,99588.03
2019-01-28T19:23:07.105Z,99592.91
2019-01-28T19:25:40.192Z,99600.43
2019-01-28T19:28:11.034Z,99609.70
2019-01-28T19:30:40.740Z,99615.99
2019-01-28T19:33:10.225Z,99623.44
2019-01-28T19:35:42.435Z,99623.03
2019-01-28T19:38:11.897Z,99628.30
2019-01-28T19:40:44.443Z,99629.16
2019-01-28T19:43:15.140Z,99641.71
2019-01-28T19:45:44.618Z,99641.79
2019-01-28T19:48:14.422Z,99651.46
2019-01-28T19:50:45.301Z,99665.94
2019-01-28T19:53:14.899Z,99670.06
2019-01-28T19:55:44.439Z,99678.50
2019-01-28T19:58:15.667Z,99684.75
2019-01-28T20:00:45.243Z,99686.31
2019-01-28T20:03:16.058Z,99702.80
2019-01-28T20:05:45.787Z,99698.36
2019-01-28T20:08:16.692Z,99702.44
2019-01-28T20:10:46.207Z,99710.92
2019-01-28T20:13:16.658Z,99710.75
2019-01-28T20:15:50.123Z,99713.95
2019-01-28T20:18:19.792Z,99717.48
2019-01-28T20:20:49.528Z,99718.12
2019-01-28T20:23:19.220Z,99726.59
2019-01-28T20:25:51.944Z,99724.52
2019-01-28T20:28:21.388Z,99730.03
2019-01-28T20:30:51.448Z,99736.80
2019-01-28T20:33:22.545Z,99740.56
2019-01-28T20:35:52.354Z,99752.59
2019-01-28T20:38:22.063Z,99765.78
2019-01-28T20:40:51.618Z,99767.02
2019-01-28T20:43:24.055Z,99775.80
2019-01-28T20:45:53.824Z,99780.73
2019-01-28T20:48:23.709Z,99782.62
2019-01-28T20:50:54.111Z,99788.78
2019-01-28T20:53:23.728Z,99795.55
2019-01-28T20:55:53.815Z,99792.77
2019-01-28T20:58:23.899Z,99802.39
2019-01-28T21:00:54.211Z,99802.47
2019-01-28T21:03:23.869Z,99805.21
2019-01-28T21:05:54.133Z,99806.86
2019-01-28T21:08:25.236Z,99803.45
2019-01-28T21:10:54.783Z,99810.66
2019-01-28T21:13:24.892Z,99813.85
2019-01-28T21:15:54.285Z,99811.89
2019-01-28T21:18:23.707Z,99813.44
2019-01-28T21:20:53.914Z,99808.55
2019-01-28T21:23:23.843Z,99818.39
2019-01-28T21:25:53.740Z,99817.19
2019-01-28T21:28:25.735Z,99820.83
2019-01-28T21:30:57.090Z,99822.00
2019-01-28T21:33:26.700Z,99828.08
2019-01-28T21:36:24.464Z,99820.83
2019-01-28T21:38:54.376Z,99828.12
2019-01-28T21:41:25.527Z,99837.80
2019-01-28T21:43:55.338Z,99834.29
2019-01-28T21:46:26.568Z,99841.66
2019-01-28T21:48:56.326Z,99841.53
2019-01-28T21:51:26.258Z,99841.66
2019-01-28T21:53:56.208Z,99843.84
2019-01-28T21:56:27.530Z,99848.64
2019-01-28T21:58:59.548Z,99854.16
2019-01-28T22:01:29.898Z,99853.82
2019-01-28T22:04:03.263Z,99859.08
2019-01-28T22:06:32.924Z,99856.45
2019-01-28T22:09:08.368Z,99862.47
2019-01-28T22:11:35.657Z,99864.11
2019-01-28T22:14:07.219Z,99865.88
2019-01-28T22:16:36.745Z,99871.66
2019-01-28T22:19:06.264Z,99865.01
2019-01-28T22:21:36.219Z,99876.06
2019-01-28T22:24:07.259Z,99886.30
2019-01-28T22:26:38.270Z,99891.49
2019-01-28T22:29:09.298Z,99891.49
2019-01-28T22:31:38.829Z,99895.84
2019-01-28T22:34:08.493Z,99902.01
2019-01-28T22:36:38.446Z,99897.48
2019-01-28T22:39:10.327Z,99909.10
2019-01-28T22:41:43.706Z,99909.10
2019-01-28T22:44:13.251Z,99902.77
2019-01-28T22:46:42.790Z,99904.74
2019-01-28T22:49:12.300Z,99902.25
2019-01-28T22:51:43.062Z,99912.42
2019-01-28T22:54:12.479Z,99912.94
2019-01-28T22:56:42.314Z,99907.81
2019-01-28T22:59:11.886Z,99909.72
2019-01-28T23:01:41.884Z,99911.61
2019-01-28T23:04:12.382Z,99909.30
2019-01-28T23:06:42.071Z,99913.23
2019-01-28T23:09:11.709Z,99919.95
2019-01-28T23:11:43.272Z,99925.78
2019-01-28T23:14:13.025Z,99930.02
2019-01-28T23:16:42.585Z,99926.87
2019-01-28T23:19:12.005Z,99942.22
2019-01-28T23:21:43.362Z,99944.33
2019-01-28T23:24:12.868Z,99943.44
2019-01-28T23:26:44.001Z,99947.37
2019-01-28T23:29:15.098Z,99946.16
2019-01-28T23:31:44.652Z,99943.95
2019-01-28T23:34:14.084Z,99950.03
2019-01-28T23:36:43.589Z,99959.14
2019-01-28T23:39:13.109Z,99962.93
2019-01-28T23:41:43.737Z,99957.92
2019-01-28T23:44:30.351Z,99957.03
2019-01-28T23:47:00.843Z,99965.06
2019-01-28T23:49:31.255Z,99962.78
2019-01-28T23:52:00.943Z,99961.50
2019-01-28T23:54:31.434Z,99971.80
2019-01-28T23:57:00.939Z,99966.66
2019-01-28T23:59:31.106Z,99973.81
